Time;durP1;ratioP1;P1;durP2;ratioP2;P2;SDS_P1;SDS_P2;PMS_P1;PMS_P2;Temp;Humidity;BMP_temperature;BMP_pressure;BME280_temperature;BME280_humidity;BME280_pressure;Samples;Min_cycle;Max_cycle;Signal;HPM_P1;HPM_P2
2021/04/01 00:01:09;;;;;;;30.30;21.17;;;;;;;10.32;41.23;95026.84;4228171;28;20431;-85
2021/04/01 00:03:10;;;;;;;;;;;;;;;10.34;40.78;95026.72;4222886;28;20074;-85
2021/04/01 00:05:11;;;;;;;28.75;19.58;;;;;;;10.23;41.66;95027.72;4232331;28;19920;-86
2021/04/01 00:07:13;;;;;;;35.78;21.92;;;;;;;9.89;43.52;95030.13;4224766;28;20126;-86
2021/04/01 00:09:14;;;;;;;34.50;22.02;;;;;;;9.54;44.66;95026.47;4239674;27;20101;-84
2021/04/01 00:11:16;;;;;;;38.53;23.63;;;;;;;9.54;44.48;95021.22;4242040;28;20071;-85
2021/04/01 00:13:17;;;;;;;28.65;21.38;;;;;;;9.60;44.37;95016.25;4231227;28;20090;-85
2021/04/01 00:15:19;;;;;;;30.30;20.50;;;;;;;9.72;44.35;95011.66;4224008;28;20044;-85
2021/04/01 00:17:20;;;;;;;31.08;21.42;;;;;;;9.77;44.94;95008.59;4232263;28;20475;-84
2021/04/01 00:19:22;;;;;;;32.80;21.33;;;;;;;9.84;44.43;95000.00;4197256;28;20078;-84
2021/04/01 00:21:23;;;;;;;32.13;21.20;;;;;;;9.92;44.56;95004.50;4220335;28;20052;-85
2021/04/01 00:23:25;;;;;;;27.80;19.75;;;;;;;10.00;43.80;95001.13;4210885;28;20084;-85
2021/04/01 00:25:26;;;;;;;30.58;19.67;;;;;;;10.03;43.86;94993.81;4229909;28;20071;-85
2021/04/01 00:27:27;;;;;;;28.52;18.88;;;;;;;10.05;43.73;94988.44;4231978;28;20055;-84
2021/04/01 00:29:28;;;;;;;27.27;18.75;;;;;;;10.07;44.02;94989.13;4231606;28;20058;-85
2021/04/01 00:31:30;;;;;;;28.98;18.33;;;;;;;10.09;43.03;94991.56;4230803;28;20134;-84
2021/04/01 00:33:31;;;;;;;26.55;18.42;;;;;;;10.11;43.44;94987.84;4232028;28;20135;-85
2021/04/01 00:35:32;;;;;;;27.67;18.67;;;;;;;10.12;43.42;94983.44;4211500;28;20050;-85
2021/04/01 00:37:34;;;;;;;27.90;18.92;;;;;;;10.09;43.32;94988.94;4230610;28;20129;-85
2021/04/01 00:39:35;;;;;;;29.30;20.25;;;;;;;9.87;43.86;94983.19;4212194;28;20052;-85
2021/04/01 00:41:39;;;;;;;24.38;18.65;;;;;;;9.76;44.60;94984.19;4230481;28;20050;-83
2021/04/01 00:43:41;;;;;;;25.27;18.65;;;;;;;9.67;43.99;94973.81;4213107;28;20087;-86
2021/04/01 00:45:42;;;;;;;24.80;17.40;;;;;;;9.59;44.44;94964.06;4212009;28;20531;-85
2021/04/01 00:47:49;;;;;;;23.15;18.50;;;;;;;9.66;44.53;94973.00;4212085;28;20044;-85
2021/04/01 00:49:50;;;;;;;30.00;18.13;;;;;;;9.72;44.57;94961.09;4231048;28;20508;-71
2021/04/01 00:51:51;;;;;;;23.45;17.25;;;;;;;9.78;44.45;94961.34;4226666;28;20047;-70
2021/04/01 00:53:53;;;;;;;21.75;16.67;;;;;;;9.83;43.77;94958.31;4222128;28;20047;-71
2021/04/01 00:55:54;;;;;;;30.75;16.67;;;;;;;9.89;44.14;94954.25;4209848;28;20128;-71
2021/04/01 00:58:00;;;;;;;23.73;15.80;;;;;;;9.91;44.19;94949.69;4208913;28;20051;-70
2021/04/01 01:00:04;;;;;;;22.10;15.80;;;;;;;9.93;44.24;94948.56;4205531;28;20079;-70
2021/04/01 01:02:05;;;;;;;;;;;;;;;9.96;43.87;94943.06;4212757;28;20134;-71
2021/04/01 01:04:09;;;;;;;19.63;14.65;;;;;;;9.97;44.08;94949.09;4235455;27;19923;-71
2021/04/01 01:06:10;;;;;;;22.50;15.50;;;;;;;10.02;43.56;94946.84;4220187;28;20054;-71
2021/04/01 01:08:11;;;;;;;22.70;17.25;;;;;;;10.02;43.82;94939.00;4209715;28;20091;-71
2021/04/01 01:10:19;;;;;;;21.05;15.48;;;;;;;10.04;43.88;94935.28;4225478;28;20044;-72
2021/04/01 01:12:20;;;;;;;23.10;16.80;;;;;;;10.07;44.27;94930.69;4209978;28;20051;-71
2021/04/01 01:14:21;;;;;;;22.70;15.40;;;;;;;10.12;43.86;94936.31;4227166;28;20048;-71
2021/04/01 01:16:23;;;;;;;22.38;16.20;;;;;;;10.14;43.68;94934.38;4227667;28;20059;-70
2021/04/01 01:18:27;;;;;;;22.15;16.13;;;;;;;10.14;44.39;94924.72;4241673;27;20103;-70
2021/04/01 01:20:29;;;;;;;24.17;16.00;;;;;;;10.14;43.95;94924.72;4233805;28;20489;-71
2021/04/01 01:22:50;;;;;;;21.52;16.10;;;;;;;10.13;44.16;94925.69;4217526;28;20526;-70
2021/04/01 01:24:51;;;;;;;24.00;17.08;;;;;;;10.14;44.18;94924.72;4223697;28;20411;-71
2021/04/01 01:26:52;;;;;;;22.60;16.15;;;;;;;10.13;43.98;94917.84;4205970;28;20060;-71
2021/04/01 01:28:56;;;;;;;21.85;15.35;;;;;;;10.14;43.63;94918.66;4192421;28;20102;-72
2021/04/01 01:30:57;;;;;;;23.00;15.45;;;;;;;10.14;43.10;94919.47;4210182;28;20583;-72
2021/04/01 01:33:00;;;;;;;21.55;15.18;;;;;;;10.13;43.73;94917.84;4227436;28;20048;-70
2021/04/01 01:35:23;;;;;;;20.80;14.50;;;;;;;10.11;43.72;94906.72;4225203;28;20074;-71
2021/04/01 01:37:24;;;;;;;19.27;14.80;;;;;;;10.12;43.14;94890.00;4230336;28;20051;-71
2021/04/01 01:39:26;;;;;;;19.80;12.98;;;;;;;10.13;42.70;94886.44;4230251;28;20055;-70
2021/04/01 01:41:27;;;;;;;16.83;13.60;;;;;;;10.14;42.34;94885.44;4210748;28;20047;-71
2021/04/01 01:43:29;;;;;;;18.90;13.65;;;;;;;10.15;42.31;94889.72;4213155;28;20521;-70
2021/04/01 01:45:31;;;;;;;20.35;13.73;;;;;;;10.14;41.83;94892.50;4212343;28;20052;-71
2021/04/01 01:47:32;;;;;;;20.60;14.48;;;;;;;10.10;42.20;94885.91;4211680;28;20338;-70
2021/04/01 01:49:41;;;;;;;23.20;15.45;;;;;;;9.99;42.42;94882.53;4193293;28;20045;-70
2021/04/01 01:51:42;;;;;;;22.40;14.73;;;;;;;9.87;43.17;94881.13;4195829;28;20544;-70
2021/04/01 01:53:44;;;;;;;23.58;16.30;;;;;;;9.61;44.10;94891.50;4195604;28;20101;-72
2021/04/01 01:55:45;;;;;;;20.58;16.40;;;;;;;9.42;44.71;94882.84;4210672;28;20047;-69
2021/04/01 01:57:47;;;;;;;24.70;16.15;;;;;;;9.02;46.28;94885.81;4230897;28;20472;-71
2021/04/01 01:59:49;;;;;;;21.38;15.75;;;;;;;8.84;47.18;94877.91;4211348;28;20047;-71
2021/04/01 02:01:51;;;;;;;23.10;15.57;;;;;;;8.87;47.55;94875.00;4231393;28;20059;-70
2021/04/01 02:03:53;;;;;;;19.38;15.05;;;;;;;8.99;47.02;94860.78;4229890;27;20051;-72
2021/04/01 02:05:54;;;;;;;20.98;15.00;;;;;;;9.17;46.50;94857.41;4211886;28;20051;-71
2021/04/01 02:07:56;;;;;;;21.63;16.05;;;;;;;9.31;45.74;94854.25;4229527;28;20055;-71
2021/04/01 02:09:57;;;;;;;22.10;14.52;;;;;;;9.35;46.27;94849.56;4229716;28;20062;-70
2021/04/01 02:11:58;;;;;;;15.85;11.80;;;;;;;9.34;44.30;94846.16;4230607;28;20063;-71
2021/04/01 02:13:59;;;;;;;16.55;11.82;;;;;;;9.31;45.02;94856.88;4229810;28;20088;-72
2021/04/01 02:16:01;;;;;;;19.02;12.32;;;;;;;9.00;45.44;94854.59;4230430;28;20100;-73
2021/04/01 02:18:09;;;;;;;20.73;11.90;;;;;;;8.67;46.28;94862.97;4229888;28;20313;-71
2021/04/01 02:20:11;;;;;;;16.83;12.30;;;;;;;8.50;46.95;94873.22;4230508;28;20054;-70
2021/04/01 02:22:12;;;;;;;18.17;11.93;;;;;;;8.55;47.25;94871.00;4222758;28;23107;-71
2021/04/01 02:24:13;;;;;;;16.90;12.90;;;;;;;8.59;47.09;94874.97;4211590;28;20051;-71
2021/04/01 02:26:14;;;;;;;20.90;14.10;;;;;;;8.56;47.38;94874.41;4211113;28;20865;-70
2021/04/01 02:28:18;;;;;;;24.80;16.42;;;;;;;8.53;47.81;94883.38;4229444;28;20050;-71
2021/04/01 02:30:20;;;;;;;25.33;15.48;;;;;;;8.64;47.60;94878.94;4212802;28;20205;-71
2021/04/01 02:32:21;;;;;;;22.00;15.98;;;;;;;8.68;47.81;94880.31;4210676;28;20052;-71
2021/04/01 02:34:22;;;;;;;24.95;16.70;;;;;;;8.70;47.30;94886.22;4217856;28;20548;-70
2021/04/01 02:36:23;;;;;;;24.98;17.85;;;;;;;8.71;47.72;94887.84;4211012;28;20491;-70
2021/04/01 02:38:26;;;;;;;22.55;16.70;;;;;;;8.69;47.79;94892.38;4229029;28;20040;-71
2021/04/01 02:40:27;;;;;;;23.98;15.75;;;;;;;8.68;47.72;94893.38;4209638;28;20055;-70
2021/04/01 02:42:29;;;;;;;26.63;16.60;;;;;;;8.68;47.74;94893.38;4232584;28;20048;-70
2021/04/01 02:44:30;;;;;;;25.38;15.45;;;;;;;8.65;47.95;94897.09;4210977;28;20044;-72
2021/04/01 02:46:31;;;;;;;21.27;15.68;;;;;;;8.55;48.27;94899.72;4211195;28;20044;-71
2021/04/01 02:48:33;;;;;;;22.95;15.77;;;;;;;8.47;48.66;94910.03;4201117;28;20450;-71
2021/04/01 02:50:34;;;;;;;26.70;16.42;;;;;;;8.51;48.75;94914.00;4213474;28;20074;-70
2021/04/01 02:52:35;;;;;;;27.70;17.05;;;;;;;8.49;48.99;94915.94;4211826;28;20396;-70
2021/04/01 02:54:37;;;;;;;32.78;17.67;;;;;;;8.36;49.80;94918.81;4219912;28;20047;-70
2021/04/01 02:56:38;;;;;;;25.20;16.00;;;;;;;8.36;50.48;94915.41;4220326;27;20056;-69
2021/04/01 02:58:39;;;;;;;28.33;16.33;;;;;;;8.48;49.97;94911.69;4235643;27;20043;-72
2021/04/01 03:00:41;;;;;;;26.77;16.45;;;;;;;8.65;49.32;94919.75;4216512;28;20051;-73
2021/04/01 03:02:46;;;;;;;25.85;15.30;;;;;;;8.78;49.78;94921.09;4207258;28;20054;-71
2021/04/01 03:04:47;;;;;;;20.50;14.65;;;;;;;8.89;48.53;94917.50;4213314;28;20047;-71
2021/04/01 03:06:48;;;;;;;22.17;14.73;;;;;;;9.00;48.73;94922.53;4215218;28;20143;-71
2021/04/01 03:08:50;;;;;;;20.73;14.55;;;;;;;9.08;48.93;94921.81;4206127;28;20059;-69
2021/04/01 03:10:51;;;;;;;18.90;14.88;;;;;;;9.15;48.58;94920.25;4220934;28;20532;-70
2021/04/01 03:12:52;;;;;;;22.58;15.63;;;;;;;9.23;48.44;94922.97;4212068;28;20052;-71
2021/04/01 03:14:53;;;;;;;24.27;15.75;;;;;;;9.29;48.09;94911.13;4227842;28;20067;-71
2021/04/01 03:16:55;;;;;;;21.05;13.85;;;;;;;9.32;47.54;94904.78;4210317;28;20519;-72
2021/04/01 03:18:56;;;;;;;23.15;14.13;;;;;;;9.18;47.43;94906.06;4211518;28;20048;-72
2021/04/01 03:20:57;;;;;;;24.38;15.43;;;;;;;9.09;48.24;94899.94;4228703;28;20063;-73
2021/04/01 03:22:58;;;;;;;22.95;15.25;;;;;;;8.94;48.81;94902.19;4213964;28;20110;-71
2021/04/01 03:25:00;;;;;;;22.50;15.02;;;;;;;8.90;49.08;94898.22;4230575;28;20054;-85
2021/04/01 03:27:01;;;;;;;19.98;14.77;;;;;;;8.93;48.84;94894.53;4233645;28;20059;-85
2021/04/01 03:29:02;;;;;;;27.60;15.25;;;;;;;8.87;48.86;94882.03;4238712;28;20046;-85
2021/04/01 03:31:04;;;;;;;24.15;15.25;;;;;;;8.93;48.86;94887.50;4228540;28;20056;-85
2021/04/01 03:33:05;;;;;;;21.20;14.82;;;;;;;9.01;48.26;94879.75;4245955;28;20055;-82
2021/04/01 03:35:08;;;;;;;26.85;15.63;;;;;;;9.07;48.11;94878.34;4243647;28;20043;-83
2021/04/01 03:37:10;;;;;;;25.75;15.07;;;;;;;9.12;48.22;94881.38;4210973;28;20079;-84
2021/04/01 03:39:12;;;;;;;21.77;15.30;;;;;;;9.15;47.33;94869.78;4227226;28;20051;-83
2021/04/01 03:41:14;;;;;;;23.70;15.55;;;;;;;9.18;47.26;94866.88;4240923;28;20101;-85
2021/04/01 03:43:15;;;;;;;23.15;14.82;;;;;;;9.19;47.22;94871.16;4235995;28;20111;-84
2021/04/01 03:45:17;;;;;;;23.67;14.50;;;;;;;9.19;47.73;94879.00;4234266;28;20564;-83
2021/04/01 03:47:26;;;;;;;19.83;14.00;;;;;;;9.16;47.19;94871.41;4220397;28;20051;-85
2021/04/01 03:49:27;;;;;;;21.63;13.75;;;;;;;9.19;46.86;94869.34;4215245;28;20052;-83
2021/04/01 03:51:28;;;;;;;21.10;14.88;;;;;;;9.24;47.22;94876.75;4214571;28;20048;-85
2021/04/01 03:53:29;;;;;;;24.48;14.60;;;;;;;9.30;47.05;94880.56;4216073;28;20074;-85
2021/04/01 03:55:41;;;;;;;24.73;15.98;;;;;;;9.19;47.07;94882.41;4237793;28;20066;-82
2021/04/01 03:57:44;;;;;;;22.98;14.82;;;;;;;9.04;47.78;94883.88;4225096;28;20044;-85
2021/04/01 04:02:00;;;;;;;20.92;14.15;;;;;;;8.93;47.57;94881.47;4234835;28;20056;-85
2021/04/01 04:04:11;;;;;;;27.13;15.15;;;;;;;8.98;48.29;94880.03;4220406;28;20165;-85
2021/04/01 04:09:01;;;;;;;22.20;14.77;;;;;;;8.81;47.50;94883.41;4233212;28;20050;-85
2021/04/01 04:13:26;;;;;;;29.48;14.77;;;;;;;9.06;47.50;94883.75;4224249;28;20048;-86
2021/04/01 04:15:28;;;;;;;23.20;15.43;;;;;;;9.13;47.72;94887.41;4234274;28;20134;-84
2021/04/01 04:17:29;;;;;;;21.65;14.18;;;;;;;9.19;47.20;94886.81;4214955;28;20109;-86
2021/04/01 04:19:30;;;;;;;27.55;15.27;;;;;;;9.28;47.29;94891.16;4213550;28;20090;-83
2021/04/01 04:21:31;;;;;;;25.38;14.00;;;;;;;9.32;47.55;94886.47;4216774;28;20055;-84
2021/04/01 04:23:35;;;;;;;32.55;15.35;;;;;;;9.33;47.66;94886.31;4241198;27;20047;-86
2021/04/01 04:25:37;;;;;;;24.58;14.93;;;;;;;9.36;47.38;94893.06;4206240;28;20041;-86
2021/04/01 04:29:46;;;;;;;24.67;13.93;;;;;;;9.40;46.65;94882.16;4217125;28;20063;-85
2021/04/01 04:31:47;;;;;;;24.92;15.60;;;;;;;9.45;47.19;94891.38;4233124;28;20052;-86
2021/04/01 04:33:48;;;;;;;35.72;15.68;;;;;;;9.22;47.75;94897.78;4232358;28;20083;-85
2021/04/01 04:35:49;;;;;;;21.35;13.50;;;;;;;9.25;47.36;94898.47;4233583;28;20051;-86
2021/04/01 04:37:51;;;;;;;23.40;14.88;;;;;;;9.31;47.70;94906.56;4217296;28;20082;-85
2021/04/01 04:39:52;;;;;;;23.02;14.00;;;;;;;9.35;47.10;94902.69;4215793;28;20109;-85
2021/04/01 04:41:53;;;;;;;22.48;13.82;;;;;;;9.40;47.91;94905.69;4227247;28;20077;-86
2021/04/01 04:43:54;;;;;;;55.08;31.77;;;;;;;9.42;47.45;94908.13;4231528;28;20101;-85
2021/04/01 04:45:57;;;;;;;70.50;39.50;;;;;;;9.44;47.37;94906.19;4214262;28;20108;-72
2021/04/01 04:47:58;;;;;;;86.25;50.53;;;;;;;9.48;47.89;94912.78;4209378;28;20728;-72
2021/04/01 04:49:59;;;;;;;38.78;19.90;;;;;;;9.54;47.64;94914.81;4233072;27;20525;-71
2021/04/01 04:52:01;;;;;;;29.27;15.80;;;;;;;9.56;47.44;94909.44;4209408;28;20052;-71
2021/04/01 04:54:03;;;;;;;23.33;14.60;;;;;;;9.59;47.71;94923.06;4220991;28;20060;-72
2021/04/01 04:56:11;;;;;;;23.45;13.65;;;;;;;9.60;47.90;94926.50;4227698;28;20050;-73
2021/04/01 05:05:05;;;;;;;29.60;14.93;;;;;;;9.57;47.53;94930.22;4227037;28;20074;-73
2021/04/01 05:07:07;;;;;;;29.48;14.80;;;;;;;9.59;48.73;94930.06;4228897;27;20052;-72
2021/04/01 05:09:09;;;;;;;19.60;13.75;;;;;;;9.60;49.03;94931.72;4226325;28;20055;-85
2021/04/01 05:11:10;;;;;;;21.63;13.95;;;;;;;9.58;47.38;94942.34;4240120;28;20325;-86
2021/04/01 05:13:11;;;;;;;23.85;13.60;;;;;;;9.56;47.78;94938.22;4238298;28;20052;-86
2021/04/01 05:15:13;;;;;;;21.88;13.57;;;;;;;9.61;48.08;94941.22;4236307;28;20044;-86
2021/04/01 05:17:17;;;;;;;30.73;18.80;;;;;;;9.64;49.35;94944.38;4218758;28;20058;-86
2021/04/01 05:19:20;;;;;;;27.23;15.10;;;;;;;9.67;48.42;94947.66;4199728;28;20051;-85
2021/04/01 05:21:29;;;;;;;36.97;18.77;;;;;;;9.66;48.44;94946.00;4228924;28;20058;-85
2021/04/01 05:23:33;;;;;;;38.70;18.08;;;;;;;9.68;48.81;94941.44;4235685;28;20056;-85
2021/04/01 05:25:34;;;;;;;55.80;27.40;;;;;;;9.72;48.40;94945.41;4234620;28;20047;-88
2021/04/01 05:29:40;;;;;;;33.90;20.83;;;;;;;9.72;48.80;94948.88;4243684;28;20054;-85
2021/04/01 05:31:42;;;;;;;22.15;15.85;;;;;;;9.75;48.55;94940.72;4222175;28;20094;-86
2021/04/01 05:33:45;;;;;;;28.67;16.00;;;;;;;9.75;48.42;94943.34;4234284;28;20062;-84
2021/04/01 05:35:48;;;;;;;27.83;16.27;;;;;;;9.74;48.38;94944.28;4218043;28;20052;-84
2021/04/01 05:37:50;;;;;;;87.47;51.30;;;;;;;9.74;48.07;94954.75;4216613;28;20102;-87
2021/04/01 05:39:52;;;;;;;60.50;38.53;;;;;;;9.76;47.39;94946.75;4218000;28;20048;-87
2021/04/01 05:41:54;;;;;;;48.25;29.85;;;;;;;9.77;47.94;94946.63;4204342;28;20059;-90
2021/04/01 05:48:20;;;;;;;;;;;;;;;9.84;47.11;94946.84;4211785;28;20059;-73
2021/04/01 05:50:39;;;;;;;38.00;18.27;;;;;;;9.87;47.96;94954.38;4209495;28;19920;-74
2021/04/01 05:57:35;;;;;;;38.70;19.60;;;;;;;9.90;47.67;94961.97;4209934;28;20070;-72
2021/04/01 06:06:06;;;;;;;37.25;18.58;;;;;;;10.12;47.42;94952.84;4226551;28;20686;-88
2021/04/01 06:08:09;;;;;;;36.67;17.92;;;;;;;10.19;46.81;94964.34;4219686;28;20401;-87
2021/04/01 06:10:12;;;;;;;27.00;18.52;;;;;;;10.27;46.41;94968.84;4219280;28;20048;-86
2021/04/01 06:12:14;;;;;;;29.10;18.13;;;;;;;10.29;46.97;94964.31;4201832;28;20052;-84
2021/04/01 06:14:16;;;;;;;45.30;24.90;;;;;;;10.26;46.75;94969.84;4234829;28;20062;-87
2021/04/01 06:16:18;;;;;;;45.05;18.77;;;;;;;10.17;46.22;94957.63;4216471;28;20058;-86
2021/04/01 06:18:21;;;;;;;32.35;18.75;;;;;;;10.23;45.36;94964.88;4213935;28;20402;-87
2021/04/01 06:20:24;;;;;;;29.75;15.27;;;;;;;10.22;45.55;94969.31;4233496;28;20054;-87
2021/04/01 06:22:26;;;;;;;32.72;15.95;;;;;;;10.33;45.10;94970.91;4217731;28;20396;-85
2021/04/01 06:24:29;;;;;;;37.25;15.50;;;;;;;10.40;44.58;94973.72;4223429;28;20115;-88
2021/04/01 06:26:32;;;;;;;32.45;16.08;;;;;;;10.55;44.29;94966.16;4246303;28;20048;-84
2021/04/01 06:28:48;;;;;;;23.15;14.65;;;;;;;10.61;44.13;94974.22;4245288;28;20047;-84
2021/04/01 06:30:55;;;;;;;22.30;12.57;;;;;;;10.61;42.73;94966.38;4219226;28;20081;-86
2021/04/01 06:32:58;;;;;;;20.92;12.40;;;;;;;10.61;42.13;94973.41;4240391;28;20054;-84
2021/04/01 06:35:25;;;;;;;20.55;12.15;;;;;;;10.63;42.15;94967.03;4238835;28;20051;-84
2021/04/01 06:39:33;;;;;;;25.77;12.80;;;;;;;10.74;42.86;94973.00;4218548;28;20061;-90
2021/04/01 06:41:35;;;;;;;20.80;12.90;;;;;;;10.92;42.18;94973.78;4217110;28;20063;-88
2021/04/01 06:43:47;;;;;;;22.98;12.57;;;;;;;10.86;42.25;94977.84;4230319;28;20044;-73
2021/04/01 06:46:05;;;;;;;20.55;11.82;;;;;;;10.96;42.28;94976.91;4216343;28;20075;-74
2021/04/01 06:48:13;;;;;;;26.77;12.18;;;;;;;10.95;41.99;94976.09;4234310;28;20051;-84
2021/04/01 06:50:21;;;;;;;18.90;11.23;;;;;;;10.88;42.39;94976.88;4216846;28;20519;-87
2021/04/01 06:52:28;;;;;;;18.52;12.30;;;;;;;11.09;42.29;94987.00;4234978;28;20112;-86
2021/04/01 06:54:34;;;;;;;16.90;11.68;;;;;;;11.25;41.78;94976.59;4217416;28;20052;-88
2021/04/01 06:59:23;;;;;;;;;;;;;;;11.39;42.45;94983.88;4222506;27;20043;-89
2021/04/01 07:03:47;;;;;;;28.73;19.38;;;;;;;11.42;44.11;94978.31;4243457;27;20442;-88
2021/04/01 07:06:26;;;;;;;20.05;14.23;;;;;;;11.53;44.12;94977.22;4220603;28;20048;-87
2021/04/01 07:08:31;;;;;;;21.63;14.65;;;;;;;11.46;44.67;94982.28;4236580;28;20051;-87
2021/04/01 07:12:47;;;;;;;17.25;14.18;;;;;;;11.77;43.71;94981.72;4215981;28;20082;-87
2021/04/01 07:14:51;;;;;;;19.85;13.93;;;;;;;11.76;44.00;94987.13;4217844;28;20051;-86
2021/04/01 07:16:58;;;;;;;21.10;15.10;;;;;;;11.64;44.46;94976.13;4219583;28;20058;-86
2021/04/01 07:35:14;;;;;;;16.88;13.00;;;;;;;10.90;45.46;95003.75;4225349;28;20051;-86
2021/04/01 07:47:04;;;;;;;21.13;12.90;;;;;;;12.11;43.91;94999.25;4218687;28;20069;-85
2021/04/01 07:49:16;;;;;;;17.48;12.98;;;;;;;11.99;44.50;95000.53;4216157;28;20044;-89
2021/04/01 07:53:34;;;;;;;19.77;11.32;;;;;;;11.80;44.41;95002.41;4218786;28;20131;-88
2021/04/01 08:00:29;;;;;;;18.80;11.77;;;;;;;11.52;44.60;94998.34;4215111;28;20048;-86
2021/04/01 08:04:42;;;;;;;20.67;12.45;;;;;;;11.73;45.00;94998.78;4215737;28;19981;-87
2021/04/01 08:06:43;;;;;;;20.13;12.70;;;;;;;12.06;44.62;94998.88;4199756;28;20072;-88
2021/04/01 08:08:46;;;;;;;14.85;11.95;;;;;;;12.20;44.53;95003.53;4202132;28;20538;-85
2021/04/01 08:10:49;;;;;;;17.08;11.65;;;;;;;12.31;43.94;94998.97;4223806;28;20052;-85
2021/04/01 08:12:55;;;;;;;15.00;11.27;;;;;;;12.46;43.70;95003.41;4224939;28;20123;-87
2021/04/01 08:15:05;;;;;;;19.02;11.48;;;;;;;12.64;43.42;95003.22;4234708;28;20061;-89
2021/04/01 08:17:17;;;;;;;19.17;11.82;;;;;;;12.62;43.22;95007.81;4216040;28;20044;-86
2021/04/01 08:19:23;;;;;;;29.15;11.73;;;;;;;12.67;43.27;95007.34;4217682;28;20499;-87
2021/04/01 08:21:41;;;;;;;17.40;11.30;;;;;;;12.74;43.09;95000.44;4213470;28;20044;-85
2021/04/01 08:24:08;;;;;;;21.33;11.23;;;;;;;12.94;42.79;95000.09;4238843;27;20063;-90
2021/04/01 08:36:19;;;;;;;15.35;9.13;;;;;;;12.48;42.39;94983.03;4221414;27;20055;-72
2021/04/01 08:38:41;;;;;;;12.15;8.75;;;;;;;12.38;42.43;94981.53;4227642;27;20145;-73
2021/04/01 08:41:37;;;;;;;11.48;8.60;;;;;;;12.37;42.10;94988.63;4207888;28;20112;-88
2021/04/01 08:44:23;;;;;;;13.48;9.00;;;;;;;12.22;42.47;94980.56;4206693;28;20051;-87
2021/04/01 08:47:18;;;;;;;9.00;8.10;;;;;;;12.13;43.10;94975.44;4232208;28;20079;-89
2021/04/01 08:49:32;;;;;;;12.43;8.07;;;;;;;12.51;42.30;94960.84;4216596;28;20486;-73
2021/04/01 08:51:47;;;;;;;12.50;8.35;;;;;;;12.69;41.45;94966.78;4209818;28;20060;-72
2021/04/01 08:53:54;;;;;;;14.07;8.63;;;;;;;12.65;41.77;94962.84;4195098;28;20527;-73
2021/04/01 08:56:23;;;;;;;13.30;9.50;;;;;;;12.67;41.83;94968.75;4216169;28;20054;-73
2021/04/01 08:58:41;;;;;;;10.23;7.60;;;;;;;12.92;41.01;94966.06;4210048;28;20084;-72
2021/04/01 09:00:43;;;;;;;12.60;7.97;;;;;;;13.11;40.20;94955.19;4213399;28;20047;-73
2021/04/01 09:02:52;;;;;;;12.95;7.72;;;;;;;13.47;39.52;94954.78;4219050;28;20507;-73
2021/04/01 09:04:56;;;;;;;17.35;8.23;;;;;;;13.60;39.19;94943.72;4219535;28;20058;-74
2021/04/01 09:07:03;;;;;;;13.80;7.70;;;;;;;13.89;38.53;94950.97;4214301;28;20475;-71
2021/04/01 09:09:12;;;;;;;21.27;9.10;;;;;;;14.16;38.04;94945.38;4209466;28;20465;-88
2021/04/01 09:11:14;;;;;;;12.43;8.15;;;;;;;14.26;37.82;94941.53;4215042;28;20127;-88
2021/04/01 09:13:30;;;;;;;14.00;7.88;;;;;;;13.38;38.63;94947.94;4214500;28;20052;-88
2021/04/01 09:15:48;;;;;;;12.65;8.18;;;;;;;13.22;39.19;94946.13;4214912;28;20056;-87
2021/04/01 09:17:51;;;;;;;11.18;7.75;;;;;;;13.57;38.94;94943.22;4231769;28;20083;-89
2021/04/01 09:19:52;;;;;;;18.90;7.95;;;;;;;13.80;37.90;94946.75;4232561;28;20189;-89
2021/04/01 09:21:54;;;;;;;10.63;6.88;;;;;;;13.96;36.85;94945.00;4214232;28;20105;-87
2021/04/01 09:23:55;;;;;;;23.27;7.43;;;;;;;14.23;36.89;94936.59;4232610;28;20052;-87
2021/04/01 09:25:57;;;;;;;22.65;7.50;;;;;;;14.40;36.18;94937.31;4234293;28;20075;-88
2021/04/01 09:28:01;;;;;;;11.68;6.60;;;;;;;13.75;36.14;94935.91;4215347;28;20066;-87
2021/04/01 09:30:09;;;;;;;15.23;7.47;;;;;;;13.44;37.10;94933.25;4247689;28;20490;-88
2021/04/01 09:32:13;;;;;;;8.98;7.15;;;;;;;12.84;38.37;94935.38;4222750;28;20107;-87
2021/04/01 09:34:17;;;;;;;10.23;6.75;;;;;;;13.25;37.98;94931.81;4239737;28;20579;-87
2021/04/01 09:36:20;;;;;;;10.93;6.65;;;;;;;13.51;37.33;94924.50;4216569;28;20051;-87
2021/04/01 09:38:21;;;;;;;10.93;6.22;;;;;;;13.89;36.04;94922.00;4218558;28;20060;-87
2021/04/01 09:40:49;;;;;;;7.38;5.22;;;;;;;14.36;34.84;94917.56;4244941;28;20486;-87
2021/04/01 09:42:51;;;;;;;8.18;5.70;;;;;;;13.71;34.91;94910.91;4226430;27;20052;-74
2021/04/01 09:44:56;;;;;;;13.05;6.80;;;;;;;13.48;35.69;94908.22;4216058;28;20097;-72
2021/04/01 09:47:22;;;;;;;8.82;6.97;;;;;;;13.76;36.64;94913.03;4190899;28;20051;-73
2021/04/01 09:49:32;;;;;;;10.80;6.22;;;;;;;13.95;35.70;94924.94;4221776;28;20039;-87
2021/04/01 09:51:36;;;;;;;12.57;6.70;;;;;;;14.22;35.36;94919.16;4214954;28;20059;-87
2021/04/01 09:53:49;;;;;;;16.73;9.10;;;;;;;14.48;33.93;94910.88;4233246;28;20073;-88
2021/04/01 09:55:55;;;;;;;10.27;6.63;;;;;;;14.33;33.62;94902.94;4221132;28;20051;-87
2021/04/01 09:57:56;;;;;;;13.10;6.53;;;;;;;14.68;33.73;94902.50;4216524;28;20048;-75
2021/04/01 10:00:15;;;;;;;14.48;5.95;;;;;;;14.72;33.39;94896.69;4211421;28;20044;-72
2021/04/01 10:02:24;;;;;;;11.38;5.20;;;;;;;14.10;33.93;94905.56;4230534;27;20195;-73
2021/04/01 10:04:26;;;;;;;6.63;5.03;;;;;;;13.71;33.90;94895.13;4222328;28;20044;-73
2021/04/01 10:06:41;;;;;;;8.30;4.80;;;;;;;13.82;33.91;94892.09;4214141;28;20477;-74
2021/04/01 10:08:42;;;;;;;14.52;6.60;;;;;;;13.68;33.29;94892.81;4210919;28;20040;-72
2021/04/01 10:10:45;;;;;;;11.95;6.25;;;;;;;13.71;33.03;94887.22;4225358;28;20441;-74
2021/04/01 10:12:46;;;;;;;10.00;5.85;;;;;;;14.00;33.04;94875.19;4225220;28;20051;-72
2021/04/01 10:14:54;;;;;;;9.85;6.05;;;;;;;14.13;32.31;94876.25;4212548;28;20607;-73
2021/04/01 10:17:00;;;;;;;7.22;4.95;;;;;;;14.41;32.63;94872.22;4221157;27;20043;-74
2021/04/01 10:19:02;;;;;;;8.43;4.55;;;;;;;14.85;32.35;94874.97;4221224;28;20309;-74
2021/04/01 10:21:10;;;;;;;10.07;4.63;;;;;;;15.15;31.47;94873.16;4207786;28;20059;-72
2021/04/01 10:23:43;;;;;;;11.52;4.60;;;;;;;15.21;31.31;94868.13;4184997;28;20049;-74
2021/04/01 10:25:51;;;;;;;8.75;5.15;;;;;;;15.19;30.93;94876.25;4220083;28;20409;-73
2021/04/01 10:28:17;;;;;;;8.13;5.03;;;;;;;15.20;30.81;94877.06;4197760;28;20040;-73
2021/04/01 10:30:21;;;;;;;9.45;5.57;;;;;;;15.45;30.79;94867.84;4206863;28;20052;-73
2021/04/01 10:32:34;;;;;;;7.05;4.45;;;;;;;15.72;30.38;94871.66;4219755;28;20052;-74
2021/04/01 10:34:49;;;;;;;6.75;4.32;;;;;;;16.01;29.93;94854.03;4228835;28;20094;-74
2021/04/01 10:36:52;;;;;;;6.03;4.15;;;;;;;16.16;30.02;94856.63;4225322;28;20598;-73
2021/04/01 10:39:09;;;;;;;11.13;4.85;;;;;;;16.24;29.60;94850.38;4212762;28;20056;-73
2021/04/01 10:41:18;;;;;;;8.20;4.20;;;;;;;16.32;28.85;94843.13;4230393;28;20062;-89
2021/04/01 10:43:20;;;;;;;6.72;4.57;;;;;;;15.35;29.89;94849.63;4218789;28;20048;-87
2021/04/01 10:45:22;;;;;;;7.50;4.25;;;;;;;15.55;30.05;94844.59;4229046;28;20052;-88
2021/04/01 10:47:33;;;;;;;8.05;4.70;;;;;;;15.61;29.91;94844.84;4217246;28;20086;-87
2021/04/01 10:49:36;;;;;;;9.45;4.47;;;;;;;15.86;28.84;94835.59;4204166;28;20055;-87
2021/04/01 10:51:38;;;;;;;5.22;3.85;;;;;;;16.02;29.45;94834.53;4217047;28;20044;-86
2021/04/01 10:53:52;;;;;;;14.05;5.10;;;;;;;16.34;29.05;94835.81;4218649;28;20079;-87
2021/04/01 10:56:01;;;;;;;6.47;4.10;;;;;;;16.31;27.34;94843.34;4235415;28;20052;-86
2021/04/01 10:58:14;;;;;;;7.18;3.95;;;;;;;16.47;27.60;94821.88;4236756;28;20113;-88
2021/04/01 11:00:16;;;;;;;10.73;4.55;;;;;;;16.47;26.91;94834.28;4237264;28;20046;-88
2021/04/01 11:02:19;;;;;;;7.10;4.57;;;;;;;16.10;27.48;94833.59;4217110;28;20056;-86
2021/04/01 11:04:22;;;;;;;16.90;9.10;;;;;;;16.11;27.97;94825.47;4235391;28;20050;-88
2021/04/01 11:06:25;;;;;;;75.60;31.02;;;;;;;16.26;27.96;94821.91;4199774;28;20151;-87
2021/04/01 11:08:39;;;;;;;134.27;53.17;;;;;;;16.32;27.96;94821.97;4234223;28;20184;-86
2021/04/01 11:10:42;;;;;;;162.50;60.75;;;;;;;16.30;28.79;94816.06;4235621;28;20051;-87